sensor_id;sensor_type;location;lat;lon;timestamp;P1;durP1;ratioP1;P2;durP2;ratioP2
74900;SDS011;63461;51.416;6.758;2023-02-28T00:00:29;17.53;;;5.67;;
74900;SDS011;63461;51.416;6.758;2023-02-28T00:02:56;183.23;;;36.27;;
74900;SDS011;63461;51.416;6.758;2023-02-28T00:05:23;138.47;;;30.43;;
74900;SDS011;63461;51.416;6.758;2023-02-28T00:07:50;192.97;;;45.70;;
74900;SDS011;63461;51.416;6.758;2023-02-28T00:10:17;125.97;;;33.80;;
74900;SDS011;63461;51.416;6.758;2023-02-28T00:12:49;82.87;;;25.73;;
74900;SDS011;63461;51.416;6.758;2023-02-28T00:15:15;28.30;;;9.43;;
74900;SDS011;63461;51.416;6.758;2023-02-28T00:17:42;21.67;;;7.13;;
74900;SDS011;63461;51.416;6.758;2023-02-28T00:20:09;24.40;;;8.17;;
74900;SDS011;63461;51.416;6.758;2023-02-28T00:22:38;17.03;;;6.10;;
74900;SDS011;63461;51.416;6.758;2023-02-28T00:25:05;15.40;;;5.53;;
74900;SDS011;63461;51.416;6.758;2023-02-28T00:27:32;16.73;;;5.53;;
74900;SDS011;63461;51.416;6.758;2023-02-28T00:29:59;11.30;;;4.80;;
74900;SDS011;63461;51.416;6.758;2023-02-28T00:32:25;9.00;;;4.67;;
74900;SDS011;63461;51.416;6.758;2023-02-28T00:34:50;11.80;;;4.77;;
74900;SDS011;63461;51.416;6.758;2023-02-28T00:37:16;11.07;;;5.03;;
74900;SDS011;63461;51.416;6.758;2023-02-28T00:39:42;14.17;;;4.90;;
74900;SDS011;63461;51.416;6.758;2023-02-28T00:42:08;12.80;;;5.07;;
74900;SDS011;63461;51.416;6.758;2023-02-28T00:44:33;9.13;;;4.40;;
74900;SDS011;63461;51.416;6.758;2023-02-28T00:46:59;10.70;;;4.20;;
74900;SDS011;63461;51.416;6.758;2023-02-28T00:49:26;10.90;;;4.27;;
74900;SDS011;63461;51.416;6.758;2023-02-28T00:51:53;12.07;;;4.47;;
74900;SDS011;63461;51.416;6.758;2023-02-28T00:54:20;9.87;;;4.33;;
74900;SDS011;63461;51.416;6.758;2023-02-28T00:56:47;8.47;;;4.00;;
74900;SDS011;63461;51.416;6.758;2023-02-28T00:59:13;12.53;;;4.40;;
74900;SDS011;63461;51.416;6.758;2023-02-28T01:01:40;11.23;;;4.33;;
74900;SDS011;63461;51.416;6.758;2023-02-28T01:04:06;6.57;;;3.60;;
74900;SDS011;63461;51.416;6.758;2023-02-28T01:06:32;9.90;;;4.13;;
74900;SDS011;63461;51.416;6.758;2023-02-28T01:08:58;12.80;;;4.43;;
74900;SDS011;63461;51.416;6.758;2023-02-28T01:11:25;9.40;;;4.27;;
74900;SDS011;63461;51.416;6.758;2023-02-28T01:13:52;9.77;;;4.30;;
74900;SDS011;63461;51.416;6.758;2023-02-28T01:16:17;12.80;;;4.23;;
74900;SDS011;63461;51.416;6.758;2023-02-28T01:18:44;13.07;;;4.60;;
74900;SDS011;63461;51.416;6.758;2023-02-28T01:21:14;7.77;;;3.70;;
74900;SDS011;63461;51.416;6.758;2023-02-28T01:23:43;8.43;;;3.87;;
74900;SDS011;63461;51.416;6.758;2023-02-28T01:26:13;10.60;;;3.90;;
74900;SDS011;63461;51.416;6.758;2023-02-28T01:28:41;6.90;;;3.70;;
74900;SDS011;63461;51.416;6.758;2023-02-28T01:31:07;9.20;;;3.70;;
74900;SDS011;63461;51.416;6.758;2023-02-28T01:33:36;8.20;;;4.13;;
74900;SDS011;63461;51.416;6.758;2023-02-28T01:36:13;8.53;;;3.90;;
74900;SDS011;63461;51.416;6.758;2023-02-28T01:38:43;7.23;;;3.23;;
74900;SDS011;63461;51.416;6.758;2023-02-28T01:41:12;8.50;;;3.63;;
74900;SDS011;63461;51.416;6.758;2023-02-28T01:46:11;8.33;;;3.40;;
74900;SDS011;63461;51.416;6.758;2023-02-28T01:48:38;7.03;;;3.60;;
74900;SDS011;63461;51.416;6.758;2023-02-28T01:51:41;7.93;;;3.60;;
74900;SDS011;63461;51.416;6.758;2023-02-28T01:54:13;8.73;;;3.30;;
74900;SDS011;63461;51.416;6.758;2023-02-28T01:57:27;7.30;;;2.90;;
74900;SDS011;63461;51.416;6.758;2023-02-28T01:59:52;7.17;;;3.30;;
74900;SDS011;63461;51.416;6.758;2023-02-28T02:02:24;7.90;;;2.90;;
74900;SDS011;63461;51.416;6.758;2023-02-28T02:07:19;6.77;;;3.40;;
74900;SDS011;63461;51.416;6.758;2023-02-28T02:09:46;7.67;;;3.40;;
74900;SDS011;63461;51.416;6.758;2023-02-28T02:12:26;6.53;;;3.10;;
74900;SDS011;63461;51.416;6.758;2023-02-28T02:15:16;6.57;;;3.30;;
74900;SDS011;63461;51.416;6.758;2023-02-28T02:17:52;6.80;;;3.13;;
74900;SDS011;63461;51.416;6.758;2023-02-28T02:26:03;5.40;;;2.87;;
74900;SDS011;63461;51.416;6.758;2023-02-28T02:31:48;10.43;;;2.67;;
74900;SDS011;63461;51.416;6.758;2023-02-28T02:37:04;7.50;;;3.30;;
74900;SDS011;63461;51.416;6.758;2023-02-28T02:42:42;9.03;;;2.97;;
74900;SDS011;63461;51.416;6.758;2023-02-28T02:45:32;6.73;;;2.70;;
74900;SDS011;63461;51.416;6.758;2023-02-28T02:48:03;7.30;;;3.00;;
74900;SDS011;63461;51.416;6.758;2023-02-28T02:50:43;6.93;;;2.87;;
74900;SDS011;63461;51.416;6.758;2023-02-28T02:53:21;5.70;;;2.63;;
74900;SDS011;63461;51.416;6.758;2023-02-28T02:55:55;6.33;;;3.20;;
74900;SDS011;63461;51.416;6.758;2023-02-28T02:58:24;6.70;;;2.50;;
74900;SDS011;63461;51.416;6.758;2023-02-28T03:00:56;5.80;;;3.00;;
74900;SDS011;63461;51.416;6.758;2023-02-28T03:03:25;7.17;;;2.73;;
74900;SDS011;63461;51.416;6.758;2023-02-28T03:05:58;5.73;;;2.63;;
74900;SDS011;63461;51.416;6.758;2023-02-28T03:08:26;7.87;;;2.93;;
74900;SDS011;63461;51.416;6.758;2023-02-28T03:10:56;5.50;;;2.83;;
74900;SDS011;63461;51.416;6.758;2023-02-28T03:24:39;4.53;;;2.67;;
74900;SDS011;63461;51.416;6.758;2023-02-28T03:27:27;4.47;;;2.37;;
74900;SDS011;63461;51.416;6.758;2023-02-28T03:30:00;5.43;;;2.40;;
74900;SDS011;63461;51.416;6.758;2023-02-28T03:32:35;9.13;;;3.10;;
74900;SDS011;63461;51.416;6.758;2023-02-28T03:35:23;5.60;;;2.43;;
74900;SDS011;63461;51.416;6.758;2023-02-28T03:37:58;7.20;;;2.80;;
74900;SDS011;63461;51.416;6.758;2023-02-28T03:40:50;6.03;;;2.77;;
74900;SDS011;63461;51.416;6.758;2023-02-28T03:43:22;7.43;;;2.70;;
74900;SDS011;63461;51.416;6.758;2023-02-28T03:45:53;4.80;;;2.63;;
74900;SDS011;63461;51.416;6.758;2023-02-28T03:48:31;6.53;;;3.23;;
74900;SDS011;63461;51.416;6.758;2023-02-28T03:51:02;7.00;;;2.70;;
74900;SDS011;63461;51.416;6.758;2023-02-28T03:56:48;3.57;;;2.10;;
74900;SDS011;63461;51.416;6.758;2023-02-28T03:59:22;7.00;;;2.73;;
74900;SDS011;63461;51.416;6.758;2023-02-28T04:01:53;8.93;;;3.37;;
74900;SDS011;63461;51.416;6.758;2023-02-28T04:04:20;9.07;;;3.30;;
74900;SDS011;63461;51.416;6.758;2023-02-28T04:06:49;8.20;;;3.37;;
74900;SDS011;63461;51.416;6.758;2023-02-28T04:09:16;6.17;;;2.93;;
74900;SDS011;63461;51.416;6.758;2023-02-28T04:11:42;7.73;;;3.00;;
74900;SDS011;63461;51.416;6.758;2023-02-28T04:14:16;7.87;;;3.60;;
74900;SDS011;63461;51.416;6.758;2023-02-28T04:16:42;7.87;;;3.20;;
74900;SDS011;63461;51.416;6.758;2023-02-28T04:19:09;6.40;;;3.07;;
74900;SDS011;63461;51.416;6.758;2023-02-28T04:21:37;6.93;;;3.10;;
74900;SDS011;63461;51.416;6.758;2023-02-28T04:24:06;7.90;;;3.20;;
74900;SDS011;63461;51.416;6.758;2023-02-28T04:26:40;14.73;;;3.70;;
74900;SDS011;63461;51.416;6.758;2023-02-28T04:29:09;9.37;;;3.67;;
74900;SDS011;63461;51.416;6.758;2023-02-28T04:31:35;6.40;;;3.43;;
74900;SDS011;63461;51.416;6.758;2023-02-28T04:34:01;8.00;;;3.07;;
74900;SDS011;63461;51.416;6.758;2023-02-28T04:36:27;10.27;;;3.57;;
74900;SDS011;63461;51.416;6.758;2023-02-28T04:38:54;11.73;;;3.13;;
74900;SDS011;63461;51.416;6.758;2023-02-28T04:41:20;6.57;;;3.10;;
74900;SDS011;63461;51.416;6.758;2023-02-28T04:43:46;10.10;;;3.60;;
74900;SDS011;63461;51.416;6.758;2023-02-28T04:46:12;8.03;;;2.90;;
74900;SDS011;63461;51.416;6.758;2023-02-28T04:48:38;5.73;;;3.30;;
74900;SDS011;63461;51.416;6.758;2023-02-28T04:51:09;10.17;;;3.47;;
74900;SDS011;63461;51.416;6.758;2023-02-28T04:53:37;10.30;;;3.47;;
74900;SDS011;63461;51.416;6.758;2023-02-28T04:56:04;6.87;;;3.07;;
74900;SDS011;63461;51.416;6.758;2023-02-28T04:58:31;10.60;;;3.33;;
74900;SDS011;63461;51.416;6.758;2023-02-28T05:01:04;7.20;;;3.40;;
74900;SDS011;63461;51.416;6.758;2023-02-28T05:03:40;11.57;;;3.20;;
74900;SDS011;63461;51.416;6.758;2023-02-28T05:06:07;6.03;;;2.93;;
74900;SDS011;63461;51.416;6.758;2023-02-28T05:08:34;7.87;;;3.00;;
74900;SDS011;63461;51.416;6.758;2023-02-28T05:11:00;10.63;;;3.13;;
74900;SDS011;63461;51.416;6.758;2023-02-28T05:13:26;6.87;;;2.63;;
74900;SDS011;63461;51.416;6.758;2023-02-28T05:15:53;5.50;;;2.70;;
74900;SDS011;63461;51.416;6.758;2023-02-28T05:18:19;11.00;;;2.77;;
74900;SDS011;63461;51.416;6.758;2023-02-28T05:20:44;4.90;;;2.80;;
74900;SDS011;63461;51.416;6.758;2023-02-28T05:23:11;7.13;;;2.50;;
74900;SDS011;63461;51.416;6.758;2023-02-28T05:25:38;6.00;;;3.17;;
74900;SDS011;63461;51.416;6.758;2023-02-28T05:28:04;11.13;;;2.50;;
74900;SDS011;63461;51.416;6.758;2023-02-28T05:30:30;5.97;;;2.50;;
74900;SDS011;63461;51.416;6.758;2023-02-28T05:32:56;5.73;;;2.50;;
74900;SDS011;63461;51.416;6.758;2023-02-28T05:35:23;4.83;;;2.70;;
74900;SDS011;63461;51.416;6.758;2023-02-28T05:37:50;8.87;;;2.70;;
74900;SDS011;63461;51.416;6.758;2023-02-28T05:40:16;8.37;;;2.53;;
74900;SDS011;63461;51.416;6.758;2023-02-28T05:42:42;8.63;;;2.30;;
74900;SDS011;63461;51.416;6.758;2023-02-28T05:45:08;7.80;;;2.30;;
74900;SDS011;63461;51.416;6.758;2023-02-28T05:47:35;4.67;;;2.73;;
74900;SDS011;63461;51.416;6.758;2023-02-28T05:50:01;5.23;;;2.57;;
74900;SDS011;63461;51.416;6.758;2023-02-28T05:52:27;5.63;;;2.77;;
74900;SDS011;63461;51.416;6.758;2023-02-28T05:54:55;7.03;;;2.50;;
74900;SDS011;63461;51.416;6.758;2023-02-28T05:57:21;5.97;;;2.40;;
74900;SDS011;63461;51.416;6.758;2023-02-28T05:59:47;5.23;;;2.33;;
74900;SDS011;63461;51.416;6.758;2023-02-28T06:02:14;6.03;;;2.33;;
74900;SDS011;63461;51.416;6.758;2023-02-28T06:04:41;6.17;;;2.30;;
74900;SDS011;63461;51.416;6.758;2023-02-28T06:07:08;6.70;;;2.40;;
74900;SDS011;63461;51.416;6.758;2023-02-28T06:09:34;5.57;;;2.33;;
74900;SDS011;63461;51.416;6.758;2023-02-28T06:12:00;7.13;;;2.67;;
74900;SDS011;63461;51.416;6.758;2023-02-28T06:14:28;6.30;;;2.37;;
74900;SDS011;63461;51.416;6.758;2023-02-28T06:16:56;5.20;;;2.20;;
74900;SDS011;63461;51.416;6.758;2023-02-28T06:19:22;5.60;;;2.63;;
74900;SDS011;63461;51.416;6.758;2023-02-28T06:21:51;7.90;;;3.00;;
74900;SDS011;63461;51.416;6.758;2023-02-28T06:24:21;6.57;;;2.80;;
74900;SDS011;63461;51.416;6.758;2023-02-28T06:26:48;7.77;;;2.50;;
74900;SDS011;63461;51.416;6.758;2023-02-28T06:29:15;5.77;;;2.47;;
74900;SDS011;63461;51.416;6.758;2023-02-28T06:31:42;9.90;;;3.10;;
74900;SDS011;63461;51.416;6.758;2023-02-28T06:34:09;7.00;;;2.70;;
74900;SDS011;63461;51.416;6.758;2023-02-28T06:36:40;5.40;;;2.60;;
74900;SDS011;63461;51.416;6.758;2023-02-28T06:39:09;4.90;;;2.40;;
74900;SDS011;63461;51.416;6.758;2023-02-28T06:41:35;16.70;;;3.00;;
74900;SDS011;63461;51.416;6.758;2023-02-28T06:44:12;7.63;;;3.00;;
74900;SDS011;63461;51.416;6.758;2023-02-28T06:46:40;6.57;;;2.90;;
74900;SDS011;63461;51.416;6.758;2023-02-28T06:49:07;8.03;;;2.90;;
74900;SDS011;63461;51.416;6.758;2023-02-28T06:51:34;6.93;;;2.37;;
74900;SDS011;63461;51.416;6.758;2023-02-28T06:54:01;7.83;;;2.63;;
74900;SDS011;63461;51.416;6.758;2023-02-28T06:56:27;4.50;;;2.47;;
74900;SDS011;63461;51.416;6.758;2023-02-28T06:58:53;5.40;;;2.70;;
74900;SDS011;63461;51.416;6.758;2023-02-28T07:01:19;6.80;;;2.70;;
74900;SDS011;63461;51.416;6.758;2023-02-28T07:03:45;5.50;;;2.80;;
74900;SDS011;63461;51.416;6.758;2023-02-28T07:06:11;9.23;;;2.70;;
74900;SDS011;63461;51.416;6.758;2023-02-28T07:08:37;5.13;;;2.30;;
74900;SDS011;63461;51.416;6.758;2023-02-28T07:11:05;5.83;;;2.53;;
74900;SDS011;63461;51.416;6.758;2023-02-28T07:13:31;7.17;;;2.80;;
74900;SDS011;63461;51.416;6.758;2023-02-28T07:15:57;4.57;;;2.80;;
74900;SDS011;63461;51.416;6.758;2023-02-28T07:18:25;5.73;;;2.63;;
74900;SDS011;63461;51.416;6.758;2023-02-28T07:20:51;9.03;;;2.77;;
74900;SDS011;63461;51.416;6.758;2023-02-28T07:23:17;9.13;;;3.40;;
74900;SDS011;63461;51.416;6.758;2023-02-28T07:25:43;7.23;;;2.90;;
74900;SDS011;63461;51.416;6.758;2023-02-28T07:28:10;6.70;;;2.50;;
74900;SDS011;63461;51.416;6.758;2023-02-28T07:30:37;6.20;;;2.60;;
74900;SDS011;63461;51.416;6.758;2023-02-28T07:33:03;9.00;;;2.83;;
74900;SDS011;63461;51.416;6.758;2023-02-28T07:35:29;6.20;;;3.00;;
74900;SDS011;63461;51.416;6.758;2023-02-28T07:37:56;8.03;;;2.70;;
74900;SDS011;63461;51.416;6.758;2023-02-28T07:40:23;7.47;;;2.80;;
74900;SDS011;63461;51.416;6.758;2023-02-28T07:42:50;13.67;;;2.90;;
74900;SDS011;63461;51.416;6.758;2023-02-28T07:45:16;5.80;;;2.97;;
74900;SDS011;63461;51.416;6.758;2023-02-28T07:47:43;8.77;;;3.00;;
74900;SDS011;63461;51.416;6.758;2023-02-28T07:50:10;9.73;;;3.43;;
74900;SDS011;63461;51.416;6.758;2023-02-28T07:52:38;9.27;;;3.10;;
74900;SDS011;63461;51.416;6.758;2023-02-28T07:55:05;9.93;;;3.27;;
74900;SDS011;63461;51.416;6.758;2023-02-28T07:57:31;7.27;;;3.10;;
74900;SDS011;63461;51.416;6.758;2023-02-28T07:59:57;9.67;;;3.37;;
74900;SDS011;63461;51.416;6.758;2023-02-28T08:02:23;8.03;;;2.83;;
74900;SDS011;63461;51.416;6.758;2023-02-28T08:04:49;6.87;;;2.70;;
74900;SDS011;63461;51.416;6.758;2023-02-28T08:07:15;10.97;;;2.90;;
74900;SDS011;63461;51.416;6.758;2023-02-28T08:09:42;7.03;;;2.90;;
74900;SDS011;63461;51.416;6.758;2023-02-28T08:12:09;7.73;;;2.93;;
74900;SDS011;63461;51.416;6.758;2023-02-28T08:14:36;8.07;;;3.40;;
74900;SDS011;63461;51.416;6.758;2023-02-28T08:17:03;6.10;;;2.70;;
74900;SDS011;63461;51.416;6.758;2023-02-28T08:19:29;9.97;;;2.70;;
74900;SDS011;63461;51.416;6.758;2023-02-28T08:21:56;5.73;;;2.33;;
74900;SDS011;63461;51.416;6.758;2023-02-28T08:24:22;7.17;;;2.70;;
74900;SDS011;63461;51.416;6.758;2023-02-28T08:26:48;8.30;;;2.60;;
74900;SDS011;63461;51.416;6.758;2023-02-28T08:29:14;11.90;;;2.90;;
74900;SDS011;63461;51.416;6.758;2023-02-28T08:31:40;5.47;;;2.33;;
74900;SDS011;63461;51.416;6.758;2023-02-28T08:34:07;9.80;;;3.10;;
74900;SDS011;63461;51.416;6.758;2023-02-28T08:36:37;6.80;;;3.00;;
74900;SDS011;63461;51.416;6.758;2023-02-28T08:39:04;5.87;;;2.87;;
74900;SDS011;63461;51.416;6.758;2023-02-28T08:41:30;4.63;;;2.70;;
74900;SDS011;63461;51.416;6.758;2023-02-28T08:43:56;6.77;;;2.53;;
74900;SDS011;63461;51.416;6.758;2023-02-28T08:46:22;5.87;;;2.20;;
74900;SDS011;63461;51.416;6.758;2023-02-28T08:48:51;7.33;;;2.60;;
74900;SDS011;63461;51.416;6.758;2023-02-28T08:51:18;8.57;;;2.40;;
74900;SDS011;63461;51.416;6.758;2023-02-28T08:53:51;3.07;;;1.90;;
74900;SDS011;63461;51.416;6.758;2023-02-28T08:56:17;4.83;;;2.07;;
74900;SDS011;63461;51.416;6.758;2023-02-28T08:58:44;4.80;;;2.63;;
74900;SDS011;63461;51.416;6.758;2023-02-28T09:01:15;6.37;;;2.20;;
74900;SDS011;63461;51.416;6.758;2023-02-28T09:03:44;4.47;;;2.43;;
74900;SDS011;63461;51.416;6.758;2023-02-28T09:06:11;3.93;;;2.20;;
74900;SDS011;63461;51.416;6.758;2023-02-28T09:08:37;6.37;;;1.90;;
74900;SDS011;63461;51.416;6.758;2023-02-28T09:11:04;4.50;;;1.93;;
74900;SDS011;63461;51.416;6.758;2023-02-28T09:13:30;7.47;;;2.20;;
74900;SDS011;63461;51.416;6.758;2023-02-28T09:15:58;4.83;;;2.47;;
74900;SDS011;63461;51.416;6.758;2023-02-28T09:18:25;4.37;;;2.50;;
74900;SDS011;63461;51.416;6.758;2023-02-28T09:20:51;6.40;;;2.20;;
74900;SDS011;63461;51.416;6.758;2023-02-28T09:23:18;4.00;;;2.03;;
74900;SDS011;63461;51.416;6.758;2023-02-28T09:25:48;4.07;;;2.07;;
74900;SDS011;63461;51.416;6.758;2023-02-28T09:28:19;4.53;;;1.87;;
74900;SDS011;63461;51.416;6.758;2023-02-28T09:30:46;4.17;;;2.10;;
74900;SDS011;63461;51.416;6.758;2023-02-28T09:33:14;4.73;;;1.90;;
74900;SDS011;63461;51.416;6.758;2023-02-28T09:35:41;4.43;;;1.60;;
74900;SDS011;63461;51.416;6.758;2023-02-28T09:38:08;2.63;;;1.97;;
74900;SDS011;63461;51.416;6.758;2023-02-28T09:40:36;3.93;;;1.80;;
74900;SDS011;63461;51.416;6.758;2023-02-28T09:43:14;5.03;;;2.00;;
74900;SDS011;63461;51.416;6.758;2023-02-28T09:45:44;7.43;;;2.17;;
74900;SDS011;63461;51.416;6.758;2023-02-28T09:48:32;7.07;;;2.57;;
74900;SDS011;63461;51.416;6.758;2023-02-28T09:51:03;4.50;;;2.50;;
74900;SDS011;63461;51.416;6.758;2023-02-28T09:53:46;4.57;;;1.90;;
74900;SDS011;63461;51.416;6.758;2023-02-28T09:56:14;8.03;;;3.13;;
74900;SDS011;63461;51.416;6.758;2023-02-28T10:07:11;2.47;;;1.73;;
74900;SDS011;63461;51.416;6.758;2023-02-28T10:09:47;3.50;;;1.70;;
74900;SDS011;63461;51.416;6.758;2023-02-28T10:12:18;3.30;;;1.77;;
74900;SDS011;63461;51.416;6.758;2023-02-28T10:14:46;5.93;;;1.93;;
74900;SDS011;63461;51.416;6.758;2023-02-28T10:17:19;9.20;;;4.20;;
74900;SDS011;63461;51.416;6.758;2023-02-28T10:24:41;3.87;;;1.90;;
74900;SDS011;63461;51.416;6.758;2023-02-28T10:29:45;3.60;;;1.80;;
74900;SDS011;63461;51.416;6.758;2023-02-28T10:32:17;3.40;;;1.73;;
74900;SDS011;63461;51.416;6.758;2023-02-28T10:34:44;4.47;;;1.60;;
74900;SDS011;63461;51.416;6.758;2023-02-28T10:37:16;3.43;;;1.90;;
74900;SDS011;63461;51.416;6.758;2023-02-28T10:39:43;3.57;;;1.70;;
74900;SDS011;63461;51.416;6.758;2023-02-28T10:42:18;2.23;;;1.50;;
74900;SDS011;63461;51.416;6.758;2023-02-28T10:45:04;5.00;;;1.53;;
74900;SDS011;63461;51.416;6.758;2023-02-28T10:50:31;6.43;;;1.73;;
74900;SDS011;63461;51.416;6.758;2023-02-28T11:01:17;5.77;;;1.70;;
74900;SDS011;63461;51.416;6.758;2023-02-28T11:03:45;4.50;;;1.60;;
74900;SDS011;63461;51.416;6.758;2023-02-28T11:06:16;4.07;;;1.50;;
74900;SDS011;63461;51.416;6.758;2023-02-28T11:08:59;3.83;;;1.67;;
74900;SDS011;63461;51.416;6.758;2023-02-28T11:11:29;15.63;;;6.77;;
74900;SDS011;63461;51.416;6.758;2023-02-28T11:13:58;5.57;;;2.43;;
74900;SDS011;63461;51.416;6.758;2023-02-28T11:16:34;4.60;;;2.10;;
74900;SDS011;63461;51.416;6.758;2023-02-28T11:19:02;8.33;;;3.63;;
74900;SDS011;63461;51.416;6.758;2023-02-28T11:21:32;4.67;;;3.20;;
74900;SDS011;63461;51.416;6.758;2023-02-28T11:26:52;3.53;;;1.90;;
74900;SDS011;63461;51.416;6.758;2023-02-28T11:29:22;2.93;;;1.60;;
74900;SDS011;63461;51.416;6.758;2023-02-28T11:32:05;10.70;;;1.90;;
74900;SDS011;63461;51.416;6.758;2023-02-28T11:34:38;2.23;;;1.53;;
74900;SDS011;63461;51.416;6.758;2023-02-28T11:37:08;4.07;;;1.60;;
74900;SDS011;63461;51.416;6.758;2023-02-28T11:39:39;4.00;;;1.30;;
74900;SDS011;63461;51.416;6.758;2023-02-28T11:42:10;4.63;;;1.53;;
74900;SDS011;63461;51.416;6.758;2023-02-28T11:52:54;4.27;;;1.50;;
74900;SDS011;63461;51.416;6.758;2023-02-28T11:55:26;4.40;;;1.80;;
74900;SDS011;63461;51.416;6.758;2023-02-28T11:58:11;5.20;;;1.60;;
74900;SDS011;63461;51.416;6.758;2023-02-28T12:00:56;4.60;;;1.77;;
74900;SDS011;63461;51.416;6.758;2023-02-28T12:03:36;2.93;;;1.70;;
74900;SDS011;63461;51.416;6.758;2023-02-28T12:06:25;2.93;;;1.60;;
74900;SDS011;63461;51.416;6.758;2023-02-28T12:11:40;2.50;;;1.60;;
74900;SDS011;63461;51.416;6.758;2023-02-28T12:14:18;2.70;;;1.37;;
74900;SDS011;63461;51.416;6.758;2023-02-28T12:25:36;4.50;;;1.93;;
74900;SDS011;63461;51.416;6.758;2023-02-28T12:28:12;8.50;;;1.60;;
74900;SDS011;63461;51.416;6.758;2023-02-28T12:30:46;2.67;;;1.47;;
74900;SDS011;63461;51.416;6.758;2023-02-28T12:33:19;2.50;;;1.70;;
74900;SDS011;63461;51.416;6.758;2023-02-28T12:35:57;5.23;;;2.20;;
74900;SDS011;63461;51.416;6.758;2023-02-28T12:38:27;3.00;;;1.90;;
74900;SDS011;63461;51.416;6.758;2023-02-28T12:41:16;4.37;;;1.87;;
74900;SDS011;63461;51.416;6.758;2023-02-28T12:43:57;2.80;;;1.83;;
74900;SDS011;63461;51.416;6.758;2023-02-28T12:46:32;3.50;;;1.80;;
74900;SDS011;63461;51.416;6.758;2023-02-28T12:49:05;4.10;;;1.90;;
74900;SDS011;63461;51.416;6.758;2023-02-28T12:51:35;2.80;;;1.80;;
74900;SDS011;63461;51.416;6.758;2023-02-28T12:54:04;9.77;;;2.40;;
74900;SDS011;63461;51.416;6.758;2023-02-28T12:56:36;9.00;;;2.70;;
74900;SDS011;63461;51.416;6.758;2023-02-28T12:59:13;6.17;;;2.23;;
74900;SDS011;63461;51.416;6.758;2023-02-28T13:04:47;2.93;;;1.80;;
74900;SDS011;63461;51.416;6.758;2023-02-28T13:07:29;2.87;;;1.97;;
74900;SDS011;63461;51.416;6.758;2023-02-28T13:10:02;4.37;;;1.70;;
74900;SDS011;63461;51.416;6.758;2023-02-28T13:12:29;2.00;;;1.30;;
74900;SDS011;63461;51.416;6.758;2023-02-28T13:15:07;3.80;;;2.07;;
74900;SDS011;63461;51.416;6.758;2023-02-28T13:17:48;3.27;;;1.60;;
74900;SDS011;63461;51.416;6.758;2023-02-28T13:20:16;2.90;;;1.80;;
74900;SDS011;63461;51.416;6.758;2023-02-28T13:22:48;3.47;;;2.00;;
74900;SDS011;63461;51.416;6.758;2023-02-28T13:27:47;4.07;;;2.37;;
74900;SDS011;63461;51.416;6.758;2023-02-28T13:33:28;6.43;;;1.70;;
74900;SDS011;63461;51.416;6.758;2023-02-28T13:38:40;6.80;;;1.90;;
74900;SDS011;63461;51.416;6.758;2023-02-28T13:44:02;4.53;;;2.40;;
74900;SDS011;63461;51.416;6.758;2023-02-28T13:46:28;4.93;;;2.10;;
74900;SDS011;63461;51.416;6.758;2023-02-28T13:48:55;6.33;;;2.20;;
74900;SDS011;63461;51.416;6.758;2023-02-28T13:57:19;10.03;;;3.93;;
74900;SDS011;63461;51.416;6.758;2023-02-28T14:05:41;4.03;;;2.40;;
74900;SDS011;63461;51.416;6.758;2023-02-28T14:08:18;59.60;;;16.17;;
74900;SDS011;63461;51.416;6.758;2023-02-28T14:10:47;62.77;;;17.83;;
74900;SDS011;63461;51.416;6.758;2023-02-28T14:16:09;14.80;;;5.00;;
74900;SDS011;63461;51.416;6.758;2023-02-28T14:18:47;3.30;;;2.07;;
74900;SDS011;63461;51.416;6.758;2023-02-28T14:21:23;9.57;;;3.53;;
74900;SDS011;63461;51.416;6.758;2023-02-28T14:32:35;10.13;;;3.30;;
74900;SDS011;63461;51.416;6.758;2023-02-28T14:37:54;4.07;;;2.37;;
74900;SDS011;63461;51.416;6.758;2023-02-28T14:40:26;5.80;;;2.33;;
74900;SDS011;63461;51.416;6.758;2023-02-28T14:42:56;3.70;;;2.10;;
74900;SDS011;63461;51.416;6.758;2023-02-28T14:45:27;7.33;;;2.50;;
74900;SDS011;63461;51.416;6.758;2023-02-28T14:47:55;2.97;;;2.47;;
74900;SDS011;63461;51.416;6.758;2023-02-28T14:50:23;7.33;;;2.80;;
74900;SDS011;63461;51.416;6.758;2023-02-28T14:52:52;3.37;;;2.30;;
74900;SDS011;63461;51.416;6.758;2023-02-28T14:55:23;4.63;;;2.20;;
74900;SDS011;63461;51.416;6.758;2023-02-28T14:57:57;6.90;;;2.33;;
74900;SDS011;63461;51.416;6.758;2023-02-28T15:00:40;4.80;;;2.57;;
74900;SDS011;63461;51.416;6.758;2023-02-28T15:03:32;3.77;;;2.80;;
74900;SDS011;63461;51.416;6.758;2023-02-28T15:06:03;5.53;;;3.30;;
74900;SDS011;63461;51.416;6.758;2023-02-28T15:08:41;4.20;;;2.60;;
74900;SDS011;63461;51.416;6.758;2023-02-28T15:11:07;4.60;;;2.47;;
74900;SDS011;63461;51.416;6.758;2023-02-28T15:19:02;5.20;;;2.57;;
74900;SDS011;63461;51.416;6.758;2023-02-28T15:21:36;7.67;;;2.77;;
74900;SDS011;63461;51.416;6.758;2023-02-28T15:24:07;5.07;;;2.63;;
74900;SDS011;63461;51.416;6.758;2023-02-28T15:26:42;6.07;;;2.47;;
74900;SDS011;63461;51.416;6.758;2023-02-28T15:29:12;4.83;;;2.60;;
74900;SDS011;63461;51.416;6.758;2023-02-28T15:31:46;4.67;;;2.50;;
74900;SDS011;63461;51.416;6.758;2023-02-28T15:34:19;4.83;;;2.50;;
74900;SDS011;63461;51.416;6.758;2023-02-28T15:36:46;4.23;;;2.53;;
74900;SDS011;63461;51.416;6.758;2023-02-28T15:39:23;5.23;;;2.40;;
74900;SDS011;63461;51.416;6.758;2023-02-28T15:42:17;4.50;;;2.67;;
74900;SDS011;63461;51.416;6.758;2023-02-28T15:44:45;6.33;;;2.47;;
74900;SDS011;63461;51.416;6.758;2023-02-28T15:47:16;4.03;;;2.90;;
74900;SDS011;63461;51.416;6.758;2023-02-28T15:49:49;5.53;;;2.40;;
74900;SDS011;63461;51.416;6.758;2023-02-28T15:55:10;11.60;;;3.37;;
74900;SDS011;63461;51.416;6.758;2023-02-28T15:57:42;4.03;;;2.50;;
74900;SDS011;63461;51.416;6.758;2023-02-28T16:00:12;7.73;;;3.23;;
74900;SDS011;63461;51.416;6.758;2023-02-28T16:02:40;4.53;;;2.60;;
74900;SDS011;63461;51.416;6.758;2023-02-28T16:07:39;4.37;;;2.60;;
74900;SDS011;63461;51.416;6.758;2023-02-28T16:10:09;4.93;;;2.87;;
74900;SDS011;63461;51.416;6.758;2023-02-28T16:12:38;5.57;;;2.70;;
74900;SDS011;63461;51.416;6.758;2023-02-28T16:15:08;4.03;;;2.40;;
74900;SDS011;63461;51.416;6.758;2023-02-28T16:17:50;4.10;;;2.37;;
74900;SDS011;63461;51.416;6.758;2023-02-28T16:20:18;8.90;;;2.50;;
74900;SDS011;63461;51.416;6.758;2023-02-28T16:22:55;6.50;;;2.50;;
74900;SDS011;63461;51.416;6.758;2023-02-28T16:25:29;3.97;;;2.50;;
74900;SDS011;63461;51.416;6.758;2023-02-28T16:28:00;4.87;;;2.60;;
74900;SDS011;63461;51.416;6.758;2023-02-28T16:30:26;4.47;;;2.70;;
74900;SDS011;63461;51.416;6.758;2023-02-28T16:32:56;3.13;;;2.17;;
74900;SDS011;63461;51.416;6.758;2023-02-28T16:35:22;3.00;;;2.37;;
74900;SDS011;63461;51.416;6.758;2023-02-28T16:37:50;7.63;;;2.60;;
74900;SDS011;63461;51.416;6.758;2023-02-28T16:40:18;6.67;;;2.50;;
74900;SDS011;63461;51.416;6.758;2023-02-28T16:42:48;7.10;;;2.77;;
74900;SDS011;63461;51.416;6.758;2023-02-28T16:45:23;7.43;;;2.50;;
74900;SDS011;63461;51.416;6.758;2023-02-28T16:47:50;5.07;;;2.70;;
74900;SDS011;63461;51.416;6.758;2023-02-28T16:50:27;5.37;;;2.53;;
74900;SDS011;63461;51.416;6.758;2023-02-28T16:52:55;5.03;;;2.63;;
74900;SDS011;63461;51.416;6.758;2023-02-28T16:55:24;5.23;;;2.90;;
74900;SDS011;63461;51.416;6.758;2023-02-28T16:57:52;6.47;;;2.90;;
74900;SDS011;63461;51.416;6.758;2023-02-28T17:00:19;5.00;;;2.53;;
74900;SDS011;63461;51.416;6.758;2023-02-28T17:02:45;4.07;;;2.33;;
74900;SDS011;63461;51.416;6.758;2023-02-28T17:05:11;5.50;;;2.53;;
74900;SDS011;63461;51.416;6.758;2023-02-28T17:07:38;3.93;;;2.40;;
74900;SDS011;63461;51.416;6.758;2023-02-28T17:10:15;4.67;;;2.67;;
74900;SDS011;63461;51.416;6.758;2023-02-28T17:12:42;6.10;;;2.53;;
74900;SDS011;63461;51.416;6.758;2023-02-28T17:15:09;6.37;;;3.23;;
74900;SDS011;63461;51.416;6.758;2023-02-28T17:17:37;8.53;;;3.27;;